Jose Arteaga

Recruteur en chef - Tijuana
3 Avr 2027
Samedi
Processus

Personnalité

Adaptabilité (3) Ambition (7) Controverse (5) Loyauté (10) Pression (2) Professionnalisme (5) Sportivité (13) Tempérament (6)

Profil

Style d'entraînement Démocratique
Diplôme National B
Détermination 10
Gestion des joueurs 8
Motivation 8
Discipline 9
Satisfaction professionnelle
100%
Fatigue
0%
Rôle Recruteur en chef
Salaire 74.4K p/s
Contrat 14.03.2029

Performance

Comportement Bon
Efficacité de l'entraînement
39%
Développement des joueurs
65%
Prévention des blessures
20%
Mise en place tactique
35%

Événements récents

A participé à une réunion de recrutement maintenant
A évalué un joueur maintenant
A évalué un joueur 7j
A évalué un joueur 7j
A évalué un joueur 7j
A évalué un joueur 7j
A évalué un joueur 7j
A évalué un joueur 7j

Suivi en cours

143
Joueur Club Statut Capacité Confiance Observé Dernière observation Dernier vote
Wandile Duba Bidvest Wits Actif 116 / 110 40% 4 01.04.2027 -
Mateo Fernández Angusht Actif 80 / 85 40% 1 01.04.2027 -
John Yeboah Venezia Actif 119 / 125 40% 1 01.04.2027 -
Amos Inusah Wa All Stars Actif 102 / 126 40% 4 31.03.2027 -
Pedro Vite Pumas UNAM Actif 122 / 129 40% 2 31.03.2027 -
Jerome Karelse Golden Arrows Actif 104 / 92 40% 3 31.03.2027 -
Malik Mothersille Stockport County Actif 123 / 113 40% 4 31.03.2027 -
Xavier Amaechi Plymouth Argyle Actif 115 / 121 40% 2 31.03.2027 -
Ramadan Mohsen Zamalek Actif 125 / 121 40% 1 31.03.2027 -
Brayan León Mamelodi Sundowns Actif 111 / 107 40% 6 27.03.2027 -
Lucas Duarte Felgueiras Actif 117 / 105 40% 3 27.03.2027 -
Dom Ballard Leyton Orient Actif 132 / 114 40% 5 26.03.2027 -
Luis Vázquez Birmingham Actif 132 / 123 40% 2 26.03.2027 -
Harry Leonard Peterborough United Actif 106 / 119 40% 1 26.03.2027 -
Efraín Álvarez Guadalajara Actif 138 / 130 40% 8 25.03.2027 -
Kwame Opoku Asante Kotoko Actif 109 / 92 40% 4 25.03.2027 -
Christian Saydee Wigan Athletic Actif 103 / 121 40% 2 25.03.2027 -
Relebohile Mofokeng Orlando Pirates Actif 118 / 120 40% 5 24.03.2027 -
Leandro Andrade Polissia Actif 141 / 125 40% 3 24.03.2027 -
Nazar Voloshyn Dynamo Kyiv Actif 132 / 124 40% 2 23.03.2027 -
Simone Rabbi Ravenna Actif 105 / 113 40% 1 23.03.2027 -
Iker Benito Queretaro Actif 126 / 119 40% 1 23.03.2027 -
Fábio Tavares Newport County Actif 107 / 89 40% 2 21.03.2027 -
Evidence Makgopa Orlando Pirates Actif 106 / 105 40% 5 21.03.2027 -
Callum Stead Barnet Actif 105 / 84 40% 1 21.03.2027 -
Ozziel Herrera Tigres Actif 131 / 125 40% 4 20.03.2027 -
Alexandr Sojka Viktoria Plzen Actif 116 / 119 40% 3 20.03.2027 -
Florián Monzón Atlas Actif 116 / 119 40% 6 19.03.2027 -
Allahyar Sayyadmanesh Lech Actif 127 / 134 40% 4 19.03.2027 -
Teboho Tau Ajax Cape Town Actif 107 / 102 40% 2 19.03.2027 -
Adnan Courtois KV Oostende Actif 110 / 141 40% 2 19.03.2027 -
César Araújo Tigres Actif 126 / 132 40% 2 19.03.2027 -
Ethan Williams Peterborough United Actif 105 / 111 40% 1 19.03.2027 -
Armando Dobra Chesterfield Actif 120 / 116 40% 1 18.03.2027 -
Ibrahim Cissoko Zwolle Actif 109 / 118 40% 1 18.03.2027 -
Carlo Adriano Queretaro Actif 113 / 104 40% 1 17.03.2027 -
Bayron Duarte Queretaro Actif 120 / 124 40% 1 17.03.2027 -
Omar Campos Cruz Azul Actif 132 / 136 40% 1 17.03.2027 -
José Barreto Fehervar Actif 123 / 120 40% 4 13.03.2027 -
Jerónimo Porto Lapegüe Slask Actif 101 / 104 40% 5 13.03.2027 -
Etiosa Ighodaro Kaizer Chiefs Actif 108 / 102 40% 2 12.03.2027 -
Ali Youssef Apollon Actif 113 / 131 40% 1 12.03.2027 -
Itumeleng Tau Ajax Cape Town Actif 107 / 124 40% 9 11.03.2027 -
Bojan Radulović Huddersfield Town Actif 123 / 109 40% 2 11.03.2027 -
Duk Atlas Actif 121 / 120 40% 2 11.03.2027 -
Felipe Fernández Vorskla Actif 100 / 106 40% 4 10.03.2027 -
Jonathan Acquah WAFA Actif 69 / 73 40% 2 10.03.2027 -
Camillo Tavernelli Arezzo Actif 113 / 101 40% 1 10.03.2027 -
Rômulo Tigres Actif 124 / 120 40% 2 09.03.2027 -
Marko Farji Venezia Actif 117 / 131 40% 1 09.03.2027 -
Luis Palma Lech Actif 126 / 121 40% 1 09.03.2027 -
Niall Ennis Blackpool Actif 127 / 118 40% 3 08.03.2027 -
Figueiredo Alverca Actif 126 / 118 40% 1 05.03.2027 -
Sambou Soumano FC Lorient Actif 117 / 127 40% 1 02.03.2027 -
Rodrigo Trejo Vorskla Actif 84 / 93 40% 3 01.03.2027 -
Solly Khunyedi Bloemfontein Celtic Actif 108 / 100 40% 3 01.03.2027 -
Luther Zwane Platinum Stars Actif 94 / 101 40% 2 28.02.2027 -
Dale Taylor Blackpool Actif 106 / 115 40% 2 26.02.2027 -
Carlos Paraco Metalist Actif 120 / 112 40% 2 25.02.2027 -
Peter Itodo Metalist Actif 111 / 112 40% 1 25.02.2027 -
Marco Rossello Probiy Actif 83 / 84 40% 1 25.02.2027 -
Danyil Alefirenko Chornomorets Actif 102 / 111 40% 3 24.02.2027 -
Enis Destan Konyaspor Actif 132 / 118 40% 1 23.02.2027 -
Seidu Basit Ashanti Gold Actif 102 / 107 40% 1 22.02.2027 -
Job Ochieng Real Sociedad Actif 114 / 104 40% 6 21.02.2027 -
Duván Riascos Jihlava Actif 87 / 97 40% 1 21.02.2027 -
Vinicius Tobias Shakhtar Actif 133 / 135 40% 1 21.02.2027 -
Haissem Hassan Bloemfontein Celtic Actif 123 / 145 40% 1 21.02.2027 -
Myron van Brederode KV Mechelen Actif 118 / 110 40% 1 18.02.2027 -
Yegor Golenkov Rostov Actif 126 / 119 40% 2 17.02.2027 -
Brian Gutiérrez Guadalajara Actif 133 / 131 40% 1 17.02.2027 -
Brenner Santa Clara Actif 105 / 116 40% 1 17.02.2027 -
Mfundo Vilakazi Kaizer Chiefs Actif 109 / 116 40% 1 17.02.2027 -
Iwan Morgan Grimsby Town Actif 113 / 126 40% 5 15.02.2027 -
Hlompho Modiba Black Aces Actif 87 / 78 40% 1 15.02.2027 -
César Huerta Pumas UNAM Actif 123 / 130 40% 3 14.02.2027 -
Franco Díaz KV Oostende Actif 120 / 134 40% 3 14.02.2027 -
Bienvenue Kanakimana Zbrojovka Brno Actif 126 / 110 40% 1 14.02.2027 -
Antony Medrano Dobrudzha Actif 99 / 86 40% 1 14.02.2027 -
Tyreece Campbell Charlton Athletic Actif 117 / 127 40% 1 14.02.2027 -
Roger Hinojo Espanyol Actif 109 / 125 40% 1 13.02.2027 -
Ekain Orobengoa Real Sociedad Actif 93 / 113 40% 1 12.02.2027 -
Ramiro Sordo Santos Laguna Actif 132 / 121 40% 1 11.02.2027 -
Carlos Zepeda Kvant Actif 80 / 72 40% 1 05.02.2027 -
Martín Tejón Maritimo Actif 109 / 129 40% 1 03.02.2027 -
Brayan Gil Baltika Actif 125 / 116 40% 2 31.01.2027 -
Marcos Cuenca Zaragoza Actif 114 / 122 40% 1 31.01.2027 -
Ronaldo Rostov Actif 136 / 127 40% 1 28.01.2027 -
Jesús Garza Tigres Actif 123 / 119 40% 1 25.01.2027 -
Stephen Amankona Aduana Stars Actif 99 / 78 40% 3 23.01.2027 -
Kelly Saravanan Salford City Actif 107 / 113 40% 1 23.01.2027 -
Nicolás Cordero Aldosivi Actif 109 / 127 40% 2 21.01.2027 -
José Castillo Guadalajara Actif 118 / 121 40% 1 11.01.2027 -
Jhomier Guerrero Millonarios Actif 125 / 111 40% 1 11.01.2027 -
Dion Beljo Dinamo Zagreb Perdu 131 / 132 64% 1 01.01.2027 -
Razvan Puscas Astra Perdu 115 / 115 66% 1 01.01.2027 -
Ciprian Coman Pandurii Perdu 114 / 125 66% 1 01.01.2027 -
Ignacio Russo Tigre Actif 113 / 116 40% 5 30.12.2026 -
Alexis Cuello San Lorenzo Actif 116 / 115 40% 3 30.12.2026 -
Tamerlan Musaev CSKA Moscow Actif 116 / 110 40% 1 27.12.2026 -
Diego Valencia Gornik Leczna Actif 104 / 109 40% 4 23.12.2026 -
Facundo Pellistri Panathinaikos Actif 123 / 129 40% 1 20.12.2026 -
Luca Martínez Dupuy Godoy Cruz Actif 127 / 110 40% 2 17.12.2026 -
Ramiro Ruiz Rodríguez Atlético Tucumán Refusé 128 / 106 40% 3 16.12.2026 Refuser
Matías Nicosia Angusht Actif 77 / 72 40% 1 15.12.2026 -
Diego Andrada Segesta Actif 83 / 93 40% 1 14.12.2026 -
Simo Maritimo Actif 131 / 108 40% 1 13.12.2026 -
Matej Trusa DAC Dunajska Streda Actif 126 / 116 40% 1 09.12.2026 -
Fidel Ambríz Monterrey Actif 124 / 134 40% 1 08.12.2026 -
Julio Alonso Huesca Actif 111 / 131 40% 1 06.12.2026 -
Tiago Pucciarelli FK Senica Actif 103 / 104 40% 1 05.12.2026 -
Jefry Zapata Once Caldas Actif 110 / 121 40% 2 02.12.2026 -
Juan Rocca Gimnasia y Tiro Actif 109 / 119 40% 1 01.12.2026 -
Alex Morales Swindon Town Actif 101 / 98 40% 1 30.11.2026 -
Tomás O'Connor Gimnasia y Esgrima Actif 108 / 133 40% 1 27.11.2026 -
Arkaitz Mariezkurrena Real Sociedad Actif 127 / 106 40% 1 26.11.2026 -
Franco Fagúndez Estudiantes Actif 126 / 120 40% 4 24.11.2026 -
Patrick Preciado Deportivo Pasto Actif 97 / 114 40% 1 21.11.2026 -
Erik Botheim Malmo FF Actif 142 / 140 40% 1 20.11.2026 -
Valentín Depietri Talleres Actif 136 / 130 40% 1 20.11.2026 -
Kein Sato FC Tokyo Refusé 138 / 122 40% 2 15.11.2026 Plus d'infos
Ruyery Blanco Alianza Petrolera Actif 100 / 106 40% 1 14.11.2026 -
Alex Luna Instituto Actif 135 / 124 40% 1 14.11.2026 -
Yeferson Rodallega Envigado Actif 110 / 119 40% 1 13.11.2026 -
Ezequiel Bullaude Santos Laguna Actif 127 / 127 40% 1 13.11.2026 -
Diego Lainez Tigres Actif 130 / 130 40% 1 10.11.2026 -
Misael Sosa Godoy Cruz Actif 114 / 105 40% 1 08.11.2026 -
Mauro Méndez Tigre Actif 125 / 120 40% 1 03.11.2026 -
Lucas Varaldo Central Córdoba SdE Actif 116 / 131 40% 1 02.11.2026 -
Celías Ingenthron Platense Actif 110 / 117 40% 1 12.10.2026 -
Nazareno Kihm Ferro Carril Oeste Actif 124 / 111 40% 1 11.10.2026 -
Enzo Cardozo Almirante Brown Actif 90 / 116 40% 1 11.10.2026 -
Agustín De la Cuesta Racing Actif 104 / 118 40% 2 10.10.2026 -
Agustín Obregón River Plate Actif 114 / 132 40% 1 10.10.2026 -
Daniel Herrera Cortulua Actif 95 / 125 40% 1 09.10.2026 -
Lucas Agazzi Defensor Sporting Actif 108 / 139 40% 1 09.10.2026 -
Sebastián del Castillo Millonarios Actif 103 / 116 40% 1 08.10.2026 -
Facundo Balatti Danubio Actif 91 / 125 40% 1 06.10.2026 -
Teo Rodríguez Pagano San Lorenzo Actif 108 / 134 40% 1 06.10.2026 -
Ignacio Perruzzi San Lorenzo Actif 120 / 141 40% 1 05.10.2026 -
Juan Pablo De la Reta Maipú Actif 109 / 105 40% 1 05.10.2026 -
Nicolás Sumavil Platense Actif 129 / 112 40% 1 01.08.2026 -
Lucas Bruera Carabobo Actif 104 / 106 40% 1 01.08.2026 -